createdAt,value
2019-02-27T00:01:00.413Z,1027.88
2019-02-27T00:01:58.387Z,1027.88
2019-02-27T00:02:59.403Z,1027.86
2019-02-27T00:03:59.867Z,1027.82
2019-02-27T00:04:58.425Z,1027.87
2019-02-27T00:05:58.344Z,1027.89
2019-02-27T00:06:58.406Z,1027.85
2019-02-27T00:07:58.324Z,1027.84
2019-02-27T00:09:00.473Z,1027.84
2019-02-27T00:09:58.323Z,1027.84
2019-02-27T00:10:58.330Z,1027.88
2019-02-27T00:11:58.282Z,1027.86
2019-02-27T00:12:58.347Z,1027.83
2019-02-27T00:13:58.547Z,1027.84
2019-02-27T00:14:58.284Z,1027.83
2019-02-27T00:15:58.241Z,1027.84
2019-02-27T00:16:58.282Z,1027.83
2019-02-27T00:17:58.218Z,1027.82
2019-02-27T00:18:58.840Z,1027.77
2019-02-27T00:19:58.214Z,1027.76
2019-02-27T00:20:58.299Z,1027.76
2019-02-27T00:21:58.174Z,1027.74
2019-02-27T00:22:58.210Z,1027.74
2019-02-27T00:23:58.156Z,1027.73
2019-02-27T00:24:58.248Z,1027.70
2019-02-27T00:25:58.134Z,1027.69
2019-02-27T00:26:58.239Z,1027.69
2019-02-27T00:27:58.111Z,1027.69
2019-02-27T00:28:58.149Z,1027.63
2019-02-27T00:29:59.479Z,1027.60
2019-02-27T00:30:59.185Z,1027.57
2019-02-27T00:31:58.072Z,1027.55
2019-02-27T00:32:58.072Z,1027.52
2019-02-27T00:33:59.846Z,1027.48
2019-02-27T00:34:58.113Z,1027.48
2019-02-27T00:35:58.028Z,1027.47
2019-02-27T00:36:58.100Z,1027.46
2019-02-27T00:37:58.005Z,1027.46
2019-02-27T00:38:58.577Z,1027.39
2019-02-27T00:39:58.012Z,1027.43
2019-02-27T00:40:58.025Z,1027.43
2019-02-27T00:41:57.963Z,1027.40
2019-02-27T00:42:58.042Z,1027.40
2019-02-27T00:44:01.174Z,1027.41
2019-02-27T00:45:00.024Z,1027.32
2019-02-27T00:45:57.924Z,1027.38
2019-02-27T00:47:04.928Z,1027.34
2019-02-27T00:47:57.900Z,1027.33
2019-02-27T00:48:59.927Z,1027.34
2019-02-27T00:49:57.921Z,1027.31
2019-02-27T00:50:57.890Z,1027.35
2019-02-27T00:51:57.858Z,1027.30
2019-02-27T00:52:57.910Z,1027.33
2019-02-27T00:53:58.357Z,1027.29
2019-02-27T00:54:57.944Z,1027.29
2019-02-27T00:55:57.823Z,1027.33
2019-02-27T00:56:57.827Z,1027.31
2019-02-27T00:57:57.794Z,1027.29
2019-02-27T00:59:00.297Z,1027.25
2019-02-27T00:59:57.792Z,1027.25
2019-02-27T01:00:57.858Z,1027.28
2019-02-27T01:01:57.760Z,1027.26
2019-02-27T01:02:57.774Z,1027.31
2019-02-27T01:04:00.987Z,1027.25
2019-02-27T01:04:57.812Z,1027.22
2019-02-27T01:05:57.710Z,1027.21
2019-02-27T01:06:57.798Z,1027.18
2019-02-27T01:07:57.693Z,1027.23
2019-02-27T01:08:57.711Z,1027.23
2019-02-27T01:09:57.684Z,1027.18
2019-02-27T01:10:57.724Z,1027.17
2019-02-27T01:11:57.646Z,1027.22
2019-02-27T01:12:58.690Z,1027.16
2019-02-27T01:13:57.628Z,1027.16
2019-02-27T01:14:57.675Z,1027.14
2019-02-27T01:15:57.606Z,1027.10
2019-02-27T01:16:57.661Z,1027.15
2019-02-27T01:17:58.174Z,1027.07
2019-02-27T01:18:57.676Z,1027.05
2019-02-27T01:19:57.578Z,1027.05
2019-02-27T01:20:57.587Z,1027.05
2019-02-27T01:21:57.540Z,1027.04
2019-02-27T01:22:57.600Z,1027.04
2019-02-27T01:23:57.520Z,1027.01
2019-02-27T01:24:57.645Z,1026.98
2019-02-27T01:25:57.509Z,1026.99
2019-02-27T01:26:57.526Z,1026.97
2019-02-27T01:27:57.477Z,1026.87
2019-02-27T01:28:57.544Z,1026.89
2019-02-27T01:29:57.472Z,1026.85
2019-02-27T01:30:57.557Z,1026.92
2019-02-27T01:31:57.639Z,1026.86
2019-02-27T01:33:12.418Z,1026.85
2019-02-27T01:33:57.414Z,1026.85
2019-02-27T01:34:57.626Z,1026.80
2019-02-27T01:35:57.397Z,1026.77
2019-02-27T01:36:58.634Z,1026.80
2019-02-27T01:37:57.378Z,1026.78
2019-02-27T01:38:57.406Z,1026.80
2019-02-27T01:39:57.351Z,1026.77
2019-02-27T01:40:57.451Z,1026.78
2019-02-27T01:41:57.977Z,1026.75
2019-02-27T01:42:57.431Z,1026.73
2019-02-27T01:43:57.310Z,1026.71
2019-02-27T01:44:57.342Z,1026.68
2019-02-27T01:45:57.303Z,1026.69
2019-02-27T01:47:01.521Z,1026.65
2019-02-27T01:47:57.265Z,1026.62
2019-02-27T01:48:57.372Z,1026.59
2019-02-27T01:49:57.245Z,1026.58
2019-02-27T01:50:57.308Z,1026.55
2019-02-27T01:52:01.197Z,1026.59
2019-02-27T01:52:57.297Z,1026.57
2019-02-27T01:53:57.205Z,1026.52
2019-02-27T01:54:57.322Z,1026.49
2019-02-27T01:55:57.197Z,1026.48
2019-02-27T01:56:57.223Z,1026.46
2019-02-27T01:57:57.160Z,1026.52
2019-02-27T01:58:57.233Z,1026.49
2019-02-27T01:59:57.139Z,1026.52
2019-02-27T02:00:57.174Z,1026.47
2019-02-27T02:01:57.118Z,1026.47
2019-02-27T02:02:57.159Z,1026.44
2019-02-27T02:03:57.098Z,1026.50
2019-02-27T02:04:57.172Z,1026.44
2019-02-27T02:05:59.307Z,1026.48
2019-02-27T02:06:57.082Z,1026.42
2019-02-27T02:07:57.057Z,1026.46
2019-02-27T02:08:57.095Z,1026.44
2019-02-27T02:09:57.035Z,1026.43
2019-02-27T02:10:58.880Z,1026.40
2019-02-27T02:11:57.012Z,1026.39
2019-02-27T02:12:57.020Z,1026.35
2019-02-27T02:13:56.992Z,1026.32
2019-02-27T02:14:57.033Z,1026.30
2019-02-27T02:15:58.177Z,1026.29
2019-02-27T02:16:57.047Z,1026.33
2019-02-27T02:17:56.950Z,1026.27
2019-02-27T02:18:56.958Z,1026.26
2019-02-27T02:19:56.928Z,1026.22
2019-02-27T02:21:00.867Z,1026.21
2019-02-27T02:21:56.909Z,1026.24
2019-02-27T02:22:56.985Z,1026.17
2019-02-27T02:23:56.887Z,1026.17
2019-02-27T02:24:56.896Z,1026.16
2019-02-27T02:26:01.110Z,1026.11
2019-02-27T02:26:56.910Z,1026.13
2019-02-27T02:27:56.843Z,1026.06
2019-02-27T02:28:56.923Z,1026.05
2019-02-27T02:29:56.825Z,1026.03
2019-02-27T02:30:56.861Z,1026.00
2019-02-27T02:31:56.803Z,1026.02
2019-02-27T02:32:56.850Z,1026.04
2019-02-27T02:33:56.782Z,1026.06
2019-02-27T02:34:56.865Z,1026.03
2019-02-27T02:35:56.764Z,1026.01
2019-02-27T02:37:01.245Z,1025.99
2019-02-27T02:37:57.738Z,1025.97
2019-02-27T02:38:56.787Z,1025.97
2019-02-27T02:39:56.718Z,1025.98
2019-02-27T02:40:56.802Z,1025.93
2019-02-27T02:41:56.711Z,1025.93
2019-02-27T02:42:59.104Z,1025.96
2019-02-27T02:43:57.674Z,1025.96
2019-02-27T02:44:57.516Z,1025.90
2019-02-27T02:45:56.655Z,1025.90
2019-02-27T02:46:56.766Z,1025.92
2019-02-27T02:47:56.856Z,1025.83
2019-02-27T02:48:56.653Z,1025.88
2019-02-27T02:49:56.613Z,1025.86
2019-02-27T02:50:56.665Z,1025.90
2019-02-27T02:51:56.606Z,1025.85
2019-02-27T02:52:56.679Z,1025.82
2019-02-27T02:54:00.708Z,1025.84
2019-02-27T02:54:57.614Z,1025.85
2019-02-27T02:55:56.549Z,1025.81
2019-02-27T02:57:00.192Z,1025.76
2019-02-27T02:57:56.530Z,1025.76
2019-02-27T02:58:56.621Z,1025.74
2019-02-27T02:59:59.535Z,1025.80
2019-02-27T03:00:56.539Z,1025.73
2019-02-27T03:01:56.500Z,1025.71
2019-02-27T03:02:57.478Z,1025.72
2019-02-27T03:03:56.466Z,1025.65
2019-02-27T03:04:56.556Z,1025.63
2019-02-27T03:05:59.773Z,1025.67
2019-02-27T03:06:56.495Z,1025.60
2019-02-27T03:07:56.423Z,1025.57
2019-02-27T03:08:58.528Z,1025.52
2019-02-27T03:09:56.400Z,1025.52
2019-02-27T03:11:04.482Z,1025.55
2019-02-27T03:11:56.410Z,1025.51
2019-02-27T03:12:56.414Z,1025.52
2019-02-27T03:13:56.361Z,1025.49
2019-02-27T03:14:56.420Z,1025.47
2019-02-27T03:15:56.338Z,1025.39
2019-02-27T03:16:56.360Z,1025.43
2019-02-27T03:17:56.321Z,1025.41
2019-02-27T03:18:56.347Z,1025.37
2019-02-27T03:19:56.297Z,1025.32
2019-02-27T03:20:56.359Z,1025.36
2019-02-27T03:21:56.316Z,1025.36
2019-02-27T03:22:56.411Z,1025.28
2019-02-27T03:23:56.255Z,1025.27
2019-02-27T03:24:56.283Z,1025.24
2019-02-27T03:25:56.234Z,1025.27
2019-02-27T03:26:56.299Z,1025.22
2019-02-27T03:27:56.230Z,1025.20
2019-02-27T03:28:56.312Z,1025.16
2019-02-27T03:29:56.197Z,1025.13
2019-02-27T03:30:56.244Z,1025.18
2019-02-27T03:32:00.001Z,1025.18
2019-02-27T03:32:56.265Z,1025.17
2019-02-27T03:34:05.478Z,1025.18
2019-02-27T03:34:57.139Z,1025.14
2019-02-27T03:35:56.156Z,1025.13
2019-02-27T03:36:56.116Z,1025.15
2019-02-27T03:37:56.194Z,1025.12
2019-02-27T03:38:59.106Z,1025.12
2019-02-27T03:39:56.181Z,1025.13
2019-02-27T03:40:56.078Z,1025.19
2019-02-27T03:41:59.419Z,1025.16
2019-02-27T03:42:56.068Z,1025.09
2019-02-27T03:43:56.106Z,1025.16
2019-02-27T03:44:57.116Z,1025.10
2019-02-27T03:45:56.121Z,1025.17
2019-02-27T03:46:56.068Z,1025.07
2019-02-27T03:47:56.062Z,1025.11
2019-02-27T03:48:55.991Z,1025.08
2019-02-27T03:49:56.046Z,1025.06
2019-02-27T03:50:55.971Z,1025.05
2019-02-27T03:52:00.122Z,1025.02
2019-02-27T03:52:55.968Z,1025.03
2019-02-27T03:53:55.971Z,1025.12
2019-02-27T03:54:58.008Z,1025.09
2019-02-27T03:55:55.984Z,1025.10
2019-02-27T03:56:55.907Z,1025.11
2019-02-27T03:57:59.405Z,1025.12
2019-02-27T03:58:55.885Z,1025.04
2019-02-27T04:00:03.900Z,1025.13
2019-02-27T04:00:55.873Z,1025.10
2019-02-27T04:02:05.801Z,1025.11
2019-02-27T04:02:55.859Z,1025.08
2019-02-27T04:03:56.898Z,1025.12
2019-02-27T04:04:55.823Z,1025.07
2019-02-27T04:05:55.848Z,1025.08
2019-02-27T04:06:56.418Z,1025.09
2019-02-27T04:07:55.890Z,1025.06
2019-02-27T04:08:55.780Z,1025.05
2019-02-27T04:09:56.425Z,1025.04
2019-02-27T04:10:55.767Z,1025.09
2019-02-27T04:11:55.788Z,1025.08
2019-02-27T04:12:55.760Z,1025.07
2019-02-27T04:14:03.031Z,1025.08
2019-02-27T04:14:56.719Z,1025.08
2019-02-27T04:15:55.816Z,1025.13
2019-02-27T04:16:55.699Z,1025.16
2019-02-27T04:17:55.753Z,1025.05
2019-02-27T04:18:55.680Z,1025.12
2019-02-27T04:19:55.742Z,1025.01
2019-02-27T04:20:55.654Z,1024.98
2019-02-27T04:22:00.633Z,1025.00
2019-02-27T04:22:56.647Z,1025.00
2019-02-27T04:23:55.667Z,1024.97
2019-02-27T04:24:56.844Z,1024.99
2019-02-27T04:25:55.679Z,1024.96
2019-02-27T04:26:55.593Z,1024.94
2019-02-27T04:27:56.374Z,1024.91
2019-02-27T04:28:55.573Z,1024.97
2019-02-27T04:29:55.610Z,1024.95
2019-02-27T04:30:55.553Z,1024.94
2019-02-27T04:31:55.669Z,1024.91
2019-02-27T04:32:55.548Z,1024.93
2019-02-27T04:33:59.591Z,1024.89
2019-02-27T04:34:55.508Z,1024.87
2019-02-27T04:35:55.547Z,1024.92
2019-02-27T04:36:55.487Z,1024.88
2019-02-27T04:37:55.559Z,1024.89
2019-02-27T04:38:55.485Z,1024.88
2019-02-27T04:39:55.469Z,1024.84
2019-02-27T04:40:55.468Z,1024.87
2019-02-27T04:41:55.481Z,1024.91
2019-02-27T04:42:57.053Z,1024.86
2019-02-27T04:43:58.902Z,1024.84
2019-02-27T04:44:55.402Z,1024.85
2019-02-27T04:46:02.472Z,1024.84
2019-02-27T04:46:55.622Z,1024.90
2019-02-27T04:48:02.384Z,1024.91
2019-02-27T04:48:55.378Z,1024.89
2019-02-27T04:49:57.382Z,1024.92
2019-02-27T04:50:55.343Z,1024.90
2019-02-27T04:51:55.347Z,1024.90
2019-02-27T04:52:57.656Z,1024.89
2019-02-27T04:53:55.389Z,1024.83
2019-02-27T04:54:55.302Z,1024.85
2019-02-27T04:55:55.371Z,1024.83
2019-02-27T04:56:57.617Z,1024.90
2019-02-27T04:57:55.283Z,1024.90
2019-02-27T04:58:55.279Z,1024.87
2019-02-27T04:59:55.297Z,1024.82
2019-02-27T05:00:58.909Z,1024.83
2019-02-27T05:01:55.311Z,1024.88
2019-02-27T05:02:55.219Z,1024.87
2019-02-27T05:03:55.253Z,1024.90
2019-02-27T05:04:55.241Z,1024.89
2019-02-27T05:05:55.251Z,1024.89
2019-02-27T05:06:55.171Z,1024.79
2019-02-27T05:07:55.251Z,1024.84
2019-02-27T05:08:55.167Z,1024.82
2019-02-27T05:09:55.162Z,1024.81
2019-02-27T05:10:55.129Z,1024.77
2019-02-27T05:11:55.183Z,1024.74
2019-02-27T05:12:55.110Z,1024.76
2019-02-27T05:13:55.216Z,1024.73
2019-02-27T05:14:55.092Z,1024.68
2019-02-27T05:15:55.100Z,1024.67
2019-02-27T05:16:55.073Z,1024.67
2019-02-27T05:17:55.604Z,1024.66
2019-02-27T05:18:55.061Z,1024.64
2019-02-27T05:19:55.128Z,1024.66
2019-02-27T05:20:55.026Z,1024.65
2019-02-27T05:21:55.041Z,1024.65
2019-02-27T05:22:55.005Z,1024.65
2019-02-27T05:23:55.094Z,1024.62
2019-02-27T05:24:54.986Z,1024.65
2019-02-27T05:25:55.069Z,1024.61
2019-02-27T05:26:54.965Z,1024.62
2019-02-27T05:27:54.979Z,1024.69
2019-02-27T05:28:54.941Z,1024.63
2019-02-27T05:29:55.017Z,1024.63
2019-02-27T05:30:54.923Z,1024.63
2019-02-27T05:31:55.006Z,1024.65
2019-02-27T05:32:54.900Z,1024.65
2019-02-27T05:33:56.965Z,1024.67
2019-02-27T05:34:54.898Z,1024.64
2019-02-27T05:36:09.884Z,1024.71
2019-02-27T05:36:54.859Z,1024.64
2019-02-27T05:37:55.890Z,1024.64
2019-02-27T05:38:54.838Z,1024.70
2019-02-27T05:39:54.882Z,1024.70
2019-02-27T05:40:54.814Z,1024.68
2019-02-27T05:41:54.868Z,1024.68
2019-02-27T05:42:54.795Z,1024.64
2019-02-27T05:43:54.882Z,1024.67
2019-02-27T05:44:55.878Z,1024.57
2019-02-27T05:45:54.794Z,1024.62
2019-02-27T05:46:54.752Z,1024.59
2019-02-27T05:47:54.807Z,1024.67
2019-02-27T05:48:54.736Z,1024.62
2019-02-27T05:49:54.849Z,1024.63
2019-02-27T05:50:54.721Z,1024.61
2019-02-27T05:51:54.737Z,1024.61
2019-02-27T05:52:54.693Z,1024.59
2019-02-27T05:53:56.086Z,1024.62
2019-02-27T05:54:54.683Z,1024.61
2019-02-27T05:55:54.761Z,1024.58
2019-02-27T05:56:54.646Z,1024.62
2019-02-27T05:57:54.674Z,1024.60
2019-02-27T05:58:56.267Z,1024.60
2019-02-27T05:59:54.718Z,1024.63
2019-02-27T06:00:54.606Z,1024.65
2019-02-27T06:01:54.701Z,1024.62
2019-02-27T06:02:54.586Z,1024.65
2019-02-27T06:03:54.612Z,1024.65
2019-02-27T06:04:56.124Z,1024.66
2019-02-27T06:05:54.634Z,1024.68
2019-02-27T06:06:54.545Z,1024.67
2019-02-27T06:07:54.639Z,1024.69
2019-02-27T06:08:54.521Z,1024.70
2019-02-27T06:09:54.603Z,1024.71
2019-02-27T06:10:56.078Z,1024.69
2019-02-27T06:11:54.566Z,1024.71
2019-02-27T06:12:54.480Z,1024.68
2019-02-27T06:13:54.580Z,1024.67
2019-02-27T06:14:54.997Z,1024.65
2019-02-27T06:15:54.488Z,1024.64
2019-02-27T06:16:54.437Z,1024.69
2019-02-27T06:17:54.502Z,1024.67
2019-02-27T06:18:56.291Z,1024.63
2019-02-27T06:19:56.490Z,1024.56
2019-02-27T06:20:54.398Z,1024.62
2019-02-27T06:21:56.887Z,1024.55
2019-02-27T06:22:54.375Z,1024.59
2019-02-27T06:23:54.442Z,1024.59
2019-02-27T06:24:54.371Z,1024.57
2019-02-27T06:25:59.129Z,1024.61
2019-02-27T06:26:54.350Z,1024.62
2019-02-27T06:27:54.367Z,1024.58
2019-02-27T06:28:54.311Z,1024.60
2019-02-27T06:29:56.839Z,1024.54
2019-02-27T06:30:54.293Z,1024.51
2019-02-27T06:31:54.397Z,1024.52
2019-02-27T06:32:54.269Z,1024.54
2019-02-27T06:33:54.308Z,1024.54
2019-02-27T06:34:54.262Z,1024.55
2019-02-27T06:35:54.322Z,1024.56
2019-02-27T06:36:54.232Z,1024.55
2019-02-27T06:37:54.334Z,1024.59
2019-02-27T06:38:54.206Z,1024.61
2019-02-27T06:39:54.271Z,1024.60
2019-02-27T06:40:54.186Z,1024.57
2019-02-27T06:41:54.257Z,1024.54
2019-02-27T06:42:54.794Z,1024.52
2019-02-27T06:43:54.276Z,1024.49
2019-02-27T06:44:54.173Z,1024.48
2019-02-27T06:45:54.364Z,1024.50
2019-02-27T06:46:54.714Z,1024.55
2019-02-27T06:47:54.204Z,1024.49
2019-02-27T06:48:54.103Z,1024.46
2019-02-27T06:49:54.128Z,1024.54
2019-02-27T06:50:54.098Z,1024.48
2019-02-27T06:51:54.123Z,1024.41
2019-02-27T06:52:54.058Z,1024.38
2019-02-27T06:53:54.139Z,1024.42
2019-02-27T06:54:54.042Z,1024.39
2019-02-27T06:55:54.073Z,1024.39
2019-02-27T06:56:54.073Z,1024.37
2019-02-27T06:57:54.061Z,1024.30
2019-02-27T06:58:53.996Z,1024.30
2019-02-27T06:59:54.074Z,1024.39
2019-02-27T07:00:53.989Z,1024.29
2019-02-27T07:01:53.986Z,1024.29
2019-02-27T07:02:55.510Z,1024.31
2019-02-27T07:03:54.000Z,1024.25
2019-02-27T07:04:53.929Z,1024.28
2019-02-27T07:05:53.940Z,1024.25
2019-02-27T07:06:55.521Z,1024.26
2019-02-27T07:07:53.923Z,1024.30
2019-02-27T07:08:53.898Z,1024.26
2019-02-27T07:09:55.987Z,1024.29
2019-02-27T07:10:57.622Z,1024.28
2019-02-27T07:11:54.872Z,1024.26
2019-02-27T07:12:54.809Z,1024.27
2019-02-27T07:13:53.861Z,1024.29
2019-02-27T07:14:53.836Z,1024.34
2019-02-27T07:15:55.615Z,1024.31
2019-02-27T07:16:57.173Z,1024.29
2019-02-27T07:17:54.812Z,1024.39
2019-02-27T07:18:53.811Z,1024.32
2019-02-27T07:19:53.800Z,1024.36
2019-02-27T07:20:55.753Z,1024.33
2019-02-27T07:21:53.819Z,1024.30
2019-02-27T07:22:53.737Z,1024.30
2019-02-27T07:23:57.705Z,1024.33
2019-02-27T07:24:53.712Z,1024.26
2019-02-27T07:25:53.766Z,1024.25
2019-02-27T07:26:53.690Z,1024.31
2019-02-27T07:27:53.886Z,1024.29
2019-02-27T07:28:53.669Z,1024.38
2019-02-27T07:29:53.767Z,1024.26
2019-02-27T07:30:53.660Z,1024.31
2019-02-27T07:31:53.681Z,1024.25
2019-02-27T07:32:53.656Z,1024.30
2019-02-27T07:33:53.691Z,1024.26
2019-02-27T07:34:53.600Z,1024.29
2019-02-27T07:35:53.641Z,1024.33
2019-02-27T07:36:53.586Z,1024.35
2019-02-27T07:37:53.630Z,1024.35
2019-02-27T07:38:54.340Z,1024.34
2019-02-27T07:39:53.632Z,1024.32
2019-02-27T07:40:53.552Z,1024.29
2019-02-27T07:41:53.544Z,1024.26
2019-02-27T07:42:53.529Z,1024.26
2019-02-27T07:43:53.557Z,1024.26
2019-02-27T07:44:53.490Z,1024.19
2019-02-27T07:45:54.378Z,1024.20
2019-02-27T07:46:57.160Z,1024.19
2019-02-27T07:47:53.583Z,1024.16
2019-02-27T07:48:56.264Z,1024.14
2019-02-27T07:49:53.496Z,1024.17
2019-02-27T07:50:53.441Z,1024.15
2019-02-27T07:51:57.113Z,1024.09
2019-02-27T07:52:53.403Z,1024.07
2019-02-27T07:53:53.880Z,1024.07
2019-02-27T07:54:54.472Z,1024.09
2019-02-27T07:55:55.075Z,1024.05
2019-02-27T07:56:53.360Z,1024.00
2019-02-27T07:57:58.310Z,1023.97
2019-02-27T07:58:54.338Z,1023.98
2019-02-27T07:59:53.357Z,1024.03
2019-02-27T08:00:53.335Z,1024.01
2019-02-27T08:01:53.373Z,1023.95
2019-02-27T08:02:53.295Z,1023.90
2019-02-27T08:03:54.308Z,1023.94
2019-02-27T08:04:54.727Z,1023.88
2019-02-27T08:05:53.333Z,1023.87
2019-02-27T08:06:53.269Z,1023.86
2019-02-27T08:07:53.315Z,1023.85
2019-02-27T08:08:56.910Z,1023.83
2019-02-27T08:09:53.329Z,1023.84
2019-02-27T08:10:53.251Z,1023.80
2019-02-27T08:11:53.241Z,1023.83
2019-02-27T08:12:55.750Z,1023.79
2019-02-27T08:13:53.254Z,1023.82
2019-02-27T08:14:53.177Z,1023.79
2019-02-27T08:15:53.268Z,1023.84
2019-02-27T08:16:57.114Z,1023.81
2019-02-27T08:17:57.621Z,1023.84
2019-02-27T08:18:54.128Z,1023.87
2019-02-27T08:19:53.197Z,1023.87
2019-02-27T08:20:54.515Z,1023.85
2019-02-27T08:21:53.242Z,1023.90
2019-02-27T08:22:53.097Z,1023.91
2019-02-27T08:23:54.966Z,1023.84
2019-02-27T08:24:53.062Z,1023.82
2019-02-27T08:25:53.134Z,1023.84
2019-02-27T08:26:53.057Z,1023.88
2019-02-27T08:27:54.254Z,1023.80
2019-02-27T08:28:53.019Z,1023.82
2019-02-27T08:29:53.058Z,1023.80
2019-02-27T08:30:52.997Z,1023.83
2019-02-27T08:31:53.103Z,1023.85
2019-02-27T08:32:53.009Z,1023.86
2019-02-27T08:33:53.085Z,1023.85
2019-02-27T08:34:52.979Z,1023.85
2019-02-27T08:35:53.098Z,1023.83
2019-02-27T08:36:52.979Z,1023.85
2019-02-27T08:38:01.898Z,1023.74
2019-02-27T08:38:53.952Z,1023.75
2019-02-27T08:39:59.884Z,1023.71
2019-02-27T08:40:57.511Z,1023.73
2019-02-27T08:41:53.989Z,1023.70
2019-02-27T08:42:52.866Z,1023.72
2019-02-27T08:43:53.984Z,1023.74
2019-02-27T08:44:52.844Z,1023.72
2019-02-27T08:45:52.859Z,1023.75
2019-02-27T08:46:52.835Z,1023.80
2019-02-27T08:47:52.873Z,1023.77
2019-02-27T08:48:52.800Z,1023.74
2019-02-27T08:49:57.573Z,1023.67
2019-02-27T08:50:53.782Z,1023.68
2019-02-27T08:51:52.829Z,1023.68
2019-02-27T08:52:52.761Z,1023.66
2019-02-27T08:53:52.813Z,1023.68
2019-02-27T08:54:52.734Z,1023.61
2019-02-27T08:55:52.825Z,1023.64
2019-02-27T08:56:52.727Z,1023.62
2019-02-27T08:57:55.580Z,1023.59
2019-02-27T08:58:52.703Z,1023.69
2019-02-27T08:59:52.750Z,1023.66
2019-02-27T09:00:52.670Z,1023.66
2019-02-27T09:01:55.400Z,1023.65
2019-02-27T09:02:52.651Z,1023.64
2019-02-27T09:03:53.719Z,1023.60
2019-02-27T09:04:53.764Z,1023.65
2019-02-27T09:05:53.682Z,1023.57
2019-02-27T09:06:52.621Z,1023.63
2019-02-27T09:07:52.724Z,1023.66
2019-02-27T09:08:52.584Z,1023.61
2019-02-27T09:09:52.615Z,1023.59
2019-02-27T09:10:52.572Z,1023.61
2019-02-27T09:11:52.660Z,1023.53
2019-02-27T09:12:52.541Z,1023.51
2019-02-27T09:13:52.642Z,1023.52
2019-02-27T09:14:52.520Z,1023.51
2019-02-27T09:15:52.556Z,1023.51
2019-02-27T09:16:52.514Z,1023.52
2019-02-27T09:17:52.567Z,1023.51
2019-02-27T09:18:52.480Z,1023.55
2019-02-27T09:19:52.478Z,1023.54
2019-02-27T09:20:53.530Z,1023.51
2019-02-27T09:21:52.523Z,1023.52
2019-02-27T09:22:52.441Z,1023.51
2019-02-27T09:23:52.505Z,1023.44
2019-02-27T09:24:52.420Z,1023.45
2019-02-27T09:25:57.316Z,1023.43
2019-02-27T09:26:53.413Z,1023.38
2019-02-27T09:27:52.450Z,1023.36
2019-02-27T09:28:52.371Z,1023.35
2019-02-27T09:29:54.761Z,1023.36
2019-02-27T09:30:52.348Z,1023.30
2019-02-27T09:31:52.390Z,1023.29
2019-02-27T09:32:52.326Z,1023.29
2019-02-27T09:33:53.400Z,1023.31
2019-02-27T09:34:52.302Z,1023.24
2019-02-27T09:35:52.384Z,1023.30
2019-02-27T09:36:52.299Z,1023.28
2019-02-27T09:37:52.301Z,1023.31
2019-02-27T09:38:52.258Z,1023.32
2019-02-27T09:39:52.311Z,1023.33
2019-02-27T09:40:52.235Z,1023.32
2019-02-27T09:41:52.255Z,1023.32
2019-02-27T09:42:53.147Z,1023.32
2019-02-27T09:43:52.233Z,1023.33
2019-02-27T09:44:52.196Z,1023.31
2019-02-27T09:45:52.248Z,1023.25
2019-02-27T09:46:52.502Z,1023.24
2019-02-27T09:47:52.261Z,1023.30
2019-02-27T09:48:52.148Z,1023.33
2019-02-27T09:49:52.172Z,1023.26
2019-02-27T09:50:53.319Z,1023.32
2019-02-27T09:51:55.889Z,1023.30
2019-02-27T09:52:52.107Z,1023.30
2019-02-27T09:53:52.200Z,1023.37
2019-02-27T09:54:52.087Z,1023.29
2019-02-27T09:55:54.339Z,1023.28
2019-02-27T09:56:52.068Z,1023.30
2019-02-27T09:57:52.155Z,1023.31
2019-02-27T09:58:52.042Z,1023.24
2019-02-27T09:59:53.567Z,1023.20
2019-02-27T10:00:52.024Z,1023.18
2019-02-27T10:01:52.058Z,1023.23
2019-02-27T10:02:52.028Z,1023.22
2019-02-27T10:03:54.805Z,1023.23
2019-02-27T10:04:51.984Z,1023.17
2019-02-27T10:05:52.077Z,1023.18
2019-02-27T10:06:51.966Z,1023.14
2019-02-27T10:07:52.112Z,1023.14
2019-02-27T10:08:51.942Z,1023.17
2019-02-27T10:09:53.028Z,1023.18
2019-02-27T10:10:51.916Z,1023.20
2019-02-27T10:11:52.431Z,1023.17
2019-02-27T10:12:51.913Z,1023.20
2019-02-27T10:13:52.957Z,1023.18
2019-02-27T10:14:51.872Z,1023.17
2019-02-27T10:16:01.327Z,1023.20
2019-02-27T10:16:51.867Z,1023.14
2019-02-27T10:17:51.885Z,1023.07
2019-02-27T10:18:54.825Z,1023.04
2019-02-27T10:19:51.865Z,1023.03
2019-02-27T10:20:51.817Z,1023.05
2019-02-27T10:21:51.883Z,1023.06
2019-02-27T10:22:53.205Z,1023.05
2019-02-27T10:23:51.795Z,1023.08
2019-02-27T10:24:51.765Z,1023.02
2019-02-27T10:25:51.809Z,1023.05
2019-02-27T10:26:53.513Z,1022.98
2019-02-27T10:27:51.852Z,1022.99
2019-02-27T10:28:51.725Z,1022.99
2019-02-27T10:29:51.729Z,1022.98
2019-02-27T10:30:51.701Z,1022.99
2019-02-27T10:31:51.742Z,1023.02
2019-02-27T10:32:51.700Z,1023.05
2019-02-27T10:33:51.756Z,1023.03
2019-02-27T10:34:53.659Z,1023.05
2019-02-27T10:35:51.668Z,1023.04
2019-02-27T10:36:51.654Z,1023.08
2019-02-27T10:37:54.203Z,1023.03
2019-02-27T10:38:51.619Z,1023.03
2019-02-27T10:39:51.696Z,1023.00
2019-02-27T10:40:51.597Z,1023.02
2019-02-27T10:41:51.607Z,1022.98
2019-02-27T10:42:51.598Z,1022.96
2019-02-27T10:43:53.973Z,1022.87
2019-02-27T10:44:51.557Z,1022.89
2019-02-27T10:45:51.634Z,1022.88
2019-02-27T10:46:52.165Z,1022.86
2019-02-27T10:47:51.579Z,1022.86
2019-02-27T10:48:51.512Z,1022.84
2019-02-27T10:49:51.559Z,1022.83
2019-02-27T10:50:51.494Z,1022.83
2019-02-27T10:51:51.574Z,1022.82
2019-02-27T10:52:51.473Z,1022.83
2019-02-27T10:53:51.515Z,1022.83
2019-02-27T10:54:51.459Z,1022.82
2019-02-27T10:55:53.546Z,1022.77
2019-02-27T10:56:51.426Z,1022.87
2019-02-27T10:58:00.421Z,1022.88
2019-02-27T10:58:51.425Z,1022.88
2019-02-27T10:59:51.423Z,1022.88
2019-02-27T11:00:51.388Z,1022.86
2019-02-27T11:01:57.990Z,1022.83
2019-02-27T11:02:52.566Z,1022.84
2019-02-27T11:03:54.528Z,1022.82
2019-02-27T11:04:51.349Z,1022.77
2019-02-27T11:05:54.082Z,1022.78
2019-02-27T11:06:51.326Z,1022.78
2019-02-27T11:07:53.053Z,1022.77
2019-02-27T11:08:51.343Z,1022.75
2019-02-27T11:09:51.394Z,1022.79
2019-02-27T11:10:51.286Z,1022.76
2019-02-27T11:11:53.772Z,1022.70
2019-02-27T11:12:51.264Z,1022.73
2019-02-27T11:13:51.711Z,1022.72
2019-02-27T11:14:51.245Z,1022.73
2019-02-27T11:15:51.330Z,1022.68
2019-02-27T11:16:51.220Z,1022.60
2019-02-27T11:17:51.240Z,1022.63
2019-02-27T11:18:51.236Z,1022.58
2019-02-27T11:19:51.254Z,1022.54
2019-02-27T11:20:51.177Z,1022.52
2019-02-27T11:21:51.267Z,1022.46
2019-02-27T11:22:51.179Z,1022.47
2019-02-27T11:23:51.210Z,1022.44
2019-02-27T11:24:52.497Z,1022.44
2019-02-27T11:25:56.527Z,1022.41
2019-02-27T11:26:52.113Z,1022.38
2019-02-27T11:27:51.206Z,1022.31
2019-02-27T11:28:51.108Z,1022.28
2019-02-27T11:29:51.117Z,1022.31
2019-02-27T11:30:51.220Z,1022.30
2019-02-27T11:31:51.130Z,1022.27
2019-02-27T11:32:51.052Z,1022.20
2019-02-27T11:33:51.072Z,1022.25
2019-02-27T11:34:51.035Z,1022.22
2019-02-27T11:35:51.056Z,1022.23
2019-02-27T11:36:51.012Z,1022.21
2019-02-27T11:37:51.069Z,1022.22
2019-02-27T11:38:51.007Z,1022.17
2019-02-27T11:39:51.083Z,1022.18
2019-02-27T11:40:50.971Z,1022.20
2019-02-27T11:41:50.994Z,1022.22
2019-02-27T11:42:50.954Z,1022.21
2019-02-27T11:43:53.089Z,1022.18
2019-02-27T11:44:50.952Z,1022.20
2019-02-27T11:45:57.710Z,1022.18
2019-02-27T11:46:58.626Z,1022.15
2019-02-27T11:47:59.436Z,1022.11
2019-02-27T11:48:50.894Z,1022.10
2019-02-27T11:49:52.959Z,1022.09
2019-02-27T11:50:50.869Z,1022.04
2019-02-27T11:51:53.185Z,1022.06
2019-02-27T11:52:50.850Z,1022.06
2019-02-27T11:53:50.871Z,1022.06
2019-02-27T11:54:50.842Z,1022.03
2019-02-27T11:55:50.888Z,1021.99
2019-02-27T11:56:51.473Z,1021.96
2019-02-27T11:57:50.901Z,1021.92
2019-02-27T11:58:50.787Z,1021.91
2019-02-27T11:59:50.841Z,1021.86
2019-02-27T12:00:50.769Z,1021.81
2019-02-27T12:01:55.405Z,1021.83
2019-02-27T12:02:51.744Z,1021.80
2019-02-27T12:03:50.840Z,1021.83
2019-02-27T12:04:53.783Z,1021.85
2019-02-27T12:05:51.774Z,1021.85